Terminal Aerodrome Forecast
Issued by NWS Cleveland, OH

Home | Current Version | Previous Version | Text Only | Print | Product List | Glossary Off
Versions: 1 2 3 4 5 6 7 8 9 10 11 12 13 14 15 16 17 18 19 20 21 22 23 24 25 26

000
FTUS41 KCLE 270941 AAA
TAFMFD
TAF AMD
KMFD 270941Z 2710/2806 09006KT 4SM BR SCT006 OVC012
      TEMPO 2710/2714 SCT004 OVC006
     FM271500 05006KT P6SM BKN015
     FM271800 06006KT P6SM BKN045
     FM272100 03005KT P6SM SCT035 BKN120=

USA.gov is the U.S. government's official web portal to all federal, state and local government web resources and services.